This is the latest recevied weather packets stored in our database for station/object N0MPM-4. If no packets are shown the sender has not sent any weather packets the latest 10 day(s).
| Time | Temp. | Humidity | Pressure | Rain* | Wind** | Luminosity | Snow |
|---|---|---|---|---|---|---|---|
| 1787938372 | 28.33° C | 50% | 1020.2 hPa | 0 mm | - | - | - |
| 1787938072 | 28.33° C | 48% | 1020.2 hPa | 0 mm | - | - | - |
| 1787937915 | 27.22° C | 56% | 1020.4 hPa | 0 mm | - | - | - |
| 1787937772 | 28.33° C | 48% | 1020.2 hPa | 0 mm | - | - | - |
| 1787937714 | 28.33° C | 50% | 1020.2 hPa | 0 mm | - | - | - |
| 1787937472 | 27.78° C | 48% | 1020.2 hPa | 0 mm | - | - | - |
| 1787937353 | 27.78° C | 49% | 1020.2 hPa | 0 mm | - | - | - |
| 1787937172 | 27.78° C | 52% | 1020.3 hPa | 0 mm | - | - | - |
| 1787936993 | 27.78° C | 57% | 1020.3 hPa | 0 mm | - | - | - |
| 1787936970 | 27.22° C | 62% | 1020.4 hPa | 0 mm | - | - | - |
| 1787936872 | 27.22° C | 54% | 1020.3 hPa | 0 mm | - | - | - |
| 1787936633 | 27.22° C | 56% | 1020.4 hPa | 0 mm | - | - | - |
| 1787936572 | 27.22° C | 57% | 1020.4 hPa | 0 mm | - | - | - |
| 1787936370 | 27.22° C | 63% | 1020.5 hPa | 0 mm | - | - | - |
| 1787936272 | 27.22° C | 62% | 1020.4 hPa | 0 mm | - | - | - |
| 1787935972 | 27.22° C | 59% | 1020.5 hPa | 0 mm | - | - | - |
| 1787935913 | 27.22° C | 63% | 1020.5 hPa | 0 mm | - | - | - |
| 1787935672 | 27.22° C | 59% | 1020.6 hPa | 0 mm | - | - | - |
| 1787935553 | 26.67° C | 63% | 1020.6 hPa | 0 mm | - | - | - |
| 1787935372 | 26.67° C | 62% | 1020.7 hPa | 0 mm | - | - | - |
| 1787935194 | 26.67° C | 62% | 1020.6 hPa | 0 mm | - | - | - |
| 1787935072 | 26.67° C | 62% | 1020.7 hPa | 0 mm | - | - | - |
| 1787934865 | 26.11° C | 63% | 1020.6 hPa | 0 mm | - | - | - |
| 1787934834 | 26.67° C | 64% | 1020.7 hPa | 0 mm | - | - | - |
| 1787934772 | 26.67° C | 62% | 1020.7 hPa | 0 mm | - | - | - |
* Rain latest hour (hover to see other rain measurements)
** Current wind speed in m/s (hover to see current wind gust speed)